sensor_id;sensor_type;location;lat;lon;timestamp;pressure;altitude;pressure_sealevel;temperature;humidity
44979;BME280;67464;52.438;-1.904;2023-04-02T00:00:19;100507.27;;;7.32;93.24
44979;BME280;67464;52.438;-1.904;2023-04-02T00:02:46;100511.80;;;7.16;94.12
44979;BME280;67464;52.438;-1.904;2023-04-02T00:05:31;100515.07;;;6.81;100.00
44979;BME280;67464;52.438;-1.904;2023-04-02T00:07:38;100522.26;;;7.44;100.00
44979;BME280;67464;52.438;-1.904;2023-04-02T00:10:01;100527.91;;;7.78;92.04
44979;BME280;67464;52.438;-1.904;2023-04-02T00:12:27;100532.99;;;7.09;97.73
44979;BME280;67464;52.438;-1.904;2023-04-02T00:14:53;100537.49;;;7.28;94.15
44979;BME280;67464;52.438;-1.904;2023-04-02T00:17:20;100539.57;;;6.93;99.74
44979;BME280;67464;52.438;-1.904;2023-04-02T00:19:47;100541.67;;;6.81;99.58
44979;BME280;67464;52.438;-1.904;2023-04-02T00:22:15;100543.19;;;6.50;99.01
44979;BME280;67464;52.438;-1.904;2023-04-02T00:24:37;100546.25;;;7.09;98.67
44979;BME280;67464;52.438;-1.904;2023-04-02T00:27:00;100546.48;;;6.82;96.45
44979;BME280;67464;52.438;-1.904;2023-04-02T00:29:26;100549.23;;;7.48;92.92
44979;BME280;67464;52.438;-1.904;2023-04-02T00:31:53;100554.87;;;8.22;88.63
44979;BME280;67464;52.438;-1.904;2023-04-02T00:34:21;100559.07;;;8.19;82.94
44979;BME280;67464;52.438;-1.904;2023-04-02T00:36:45;100557.48;;;7.44;87.10
44979;BME280;67464;52.438;-1.904;2023-04-02T00:39:14;100560.61;;;6.87;93.41
44979;BME280;67464;52.438;-1.904;2023-04-02T00:41:36;100568.11;;;6.91;97.56
44979;BME280;67464;52.438;-1.904;2023-04-02T00:44:00;100567.66;;;6.76;95.11
44979;BME280;67464;52.438;-1.904;2023-04-02T00:46:29;100575.22;;;6.18;100.00
44979;BME280;67464;52.438;-1.904;2023-04-02T00:48:56;100575.30;;;7.29;95.22
44979;BME280;67464;52.438;-1.904;2023-04-02T00:51:23;100582.39;;;7.66;88.11
44979;BME280;67464;52.438;-1.904;2023-04-02T00:53:45;100584.51;;;7.33;88.32
44979;BME280;67464;52.438;-1.904;2023-04-02T00:56:15;100588.95;;;7.20;86.54
44979;BME280;67464;52.438;-1.904;2023-04-02T00:58:35;100587.15;;;7.69;82.02
44979;BME280;67464;52.438;-1.904;2023-04-02T01:01:01;100595.93;;;6.63;88.35
44979;BME280;67464;52.438;-1.904;2023-04-02T01:03:30;100599.62;;;7.10;88.87
44979;BME280;67464;52.438;-1.904;2023-04-02T01:05:56;100596.53;;;7.63;87.92
44979;BME280;67464;52.438;-1.904;2023-04-02T01:08:23;100605.03;;;6.46;89.61
44979;BME280;67464;52.438;-1.904;2023-04-02T01:10:53;100602.50;;;7.35;89.10
44979;BME280;67464;52.438;-1.904;2023-04-02T01:13:19;100602.57;;;7.50;85.24
44979;BME280;67464;52.438;-1.904;2023-04-02T01:15:38;100606.74;;;6.73;89.94
44979;BME280;67464;52.438;-1.904;2023-04-02T01:18:13;100605.03;;;7.52;84.31
44979;BME280;67464;52.438;-1.904;2023-04-02T01:22:55;100606.54;;;7.33;85.98
44979;BME280;67464;52.438;-1.904;2023-04-02T01:25:21;100611.94;;;7.65;85.25
44979;BME280;67464;52.438;-1.904;2023-04-02T01:27:46;100611.23;;;7.40;85.64
44979;BME280;67464;52.438;-1.904;2023-04-02T01:30:09;100617.28;;;8.34;78.71
44979;BME280;67464;52.438;-1.904;2023-04-02T01:32:34;100618.17;;;7.83;80.70
44979;BME280;67464;52.438;-1.904;2023-04-02T01:35:00;100624.73;;;7.99;78.16
44979;BME280;67464;52.438;-1.904;2023-04-02T01:37:35;100622.45;;;7.67;82.68
44979;BME280;67464;52.438;-1.904;2023-04-02T01:40:05;100628.31;;;7.80;86.25
44979;BME280;67464;52.438;-1.904;2023-04-02T01:42:20;100628.29;;;7.85;84.17
44979;BME280;67464;52.438;-1.904;2023-04-02T01:44:46;100632.03;;;8.40;79.66
44979;BME280;67464;52.438;-1.904;2023-04-02T01:47:10;100634.49;;;8.48;76.16
44979;BME280;67464;52.438;-1.904;2023-04-02T01:49:33;100636.86;;;8.43;75.24
44979;BME280;67464;52.438;-1.904;2023-04-02T01:51:59;100633.83;;;7.61;82.87
44979;BME280;67464;52.438;-1.904;2023-04-02T01:54:25;100633.57;;;8.26;77.98
44979;BME280;67464;52.438;-1.904;2023-04-02T01:56:51;100634.03;;;8.67;76.41
44979;BME280;67464;52.438;-1.904;2023-04-02T01:59:19;100634.31;;;7.51;82.08
44979;BME280;67464;52.438;-1.904;2023-04-02T02:01:45;100641.07;;;8.00;80.85
44979;BME280;67464;52.438;-1.904;2023-04-02T02:04:11;100642.66;;;8.25;77.55
44979;BME280;67464;52.438;-1.904;2023-04-02T02:06:34;100647.94;;;8.32;75.10
44979;BME280;67464;52.438;-1.904;2023-04-02T02:09:02;100649.56;;;8.35;74.72
44979;BME280;67464;52.438;-1.904;2023-04-02T02:11:28;100651.54;;;8.62;75.12
44979;BME280;67464;52.438;-1.904;2023-04-02T02:13:55;100655.39;;;8.83;73.87
44979;BME280;67464;52.438;-1.904;2023-04-02T02:16:17;100662.88;;;9.08;72.19
44979;BME280;67464;52.438;-1.904;2023-04-02T02:18:44;100664.72;;;8.03;77.25
44979;BME280;67464;52.438;-1.904;2023-04-02T02:21:09;100667.82;;;8.50;76.37
44979;BME280;67464;52.438;-1.904;2023-04-02T02:23:34;100672.28;;;8.72;73.38
44979;BME280;67464;52.438;-1.904;2023-04-02T02:25:59;100672.80;;;9.47;69.86
44979;BME280;67464;52.438;-1.904;2023-04-02T02:28:26;100675.27;;;9.69;67.65
44979;BME280;67464;52.438;-1.904;2023-04-02T02:30:53;100682.04;;;8.83;69.40
44979;BME280;67464;52.438;-1.904;2023-04-02T02:33:19;100685.77;;;8.43;74.67
44979;BME280;67464;52.438;-1.904;2023-04-02T02:35:46;100689.69;;;8.74;76.18
44979;BME280;67464;52.438;-1.904;2023-04-02T02:38:22;100694.47;;;9.11;71.82
44979;BME280;67464;52.438;-1.904;2023-04-02T02:40:38;100697.32;;;8.50;72.43
44979;BME280;67464;52.438;-1.904;2023-04-02T02:43:02;100698.73;;;8.43;73.21
44979;BME280;67464;52.438;-1.904;2023-04-02T02:45:28;100698.07;;;7.76;75.22
44979;BME280;67464;52.438;-1.904;2023-04-02T02:47:52;100698.66;;;7.51;77.97
44979;BME280;67464;52.438;-1.904;2023-04-02T02:50:19;100702.52;;;7.82;81.43
44979;BME280;67464;52.438;-1.904;2023-04-02T02:52:46;100705.32;;;8.52;79.65
44979;BME280;67464;52.438;-1.904;2023-04-02T02:55:10;100705.97;;;7.91;80.88
44979;BME280;67464;52.438;-1.904;2023-04-02T02:57:37;100710.36;;;8.23;79.52
44979;BME280;67464;52.438;-1.904;2023-04-02T02:59:59;100712.97;;;8.11;76.40
44979;BME280;67464;52.438;-1.904;2023-04-02T03:02:27;100716.78;;;7.58;81.99
44979;BME280;67464;52.438;-1.904;2023-04-02T03:04:51;100716.66;;;8.75;77.78
44979;BME280;67464;52.438;-1.904;2023-04-02T03:07:17;100718.65;;;8.25;78.16
44979;BME280;67464;52.438;-1.904;2023-04-02T03:09:48;100722.06;;;8.41;77.28
44979;BME280;67464;52.438;-1.904;2023-04-02T03:12:16;100726.00;;;8.52;76.25
44979;BME280;67464;52.438;-1.904;2023-04-02T03:14:37;100729.11;;;8.26;78.27
44979;BME280;67464;52.438;-1.904;2023-04-02T03:17:04;100735.07;;;7.60;78.04
44979;BME280;67464;52.438;-1.904;2023-04-02T03:19:28;100738.63;;;8.06;83.28
44979;BME280;67464;52.438;-1.904;2023-04-02T03:21:53;100744.65;;;7.25;89.31
44979;BME280;67464;52.438;-1.904;2023-04-02T03:24:18;100752.37;;;7.46;93.35
44979;BME280;67464;52.438;-1.904;2023-04-02T03:26:45;100754.10;;;7.45;89.94
44979;BME280;67464;52.438;-1.904;2023-04-02T03:29:13;100756.43;;;6.58;91.52
44979;BME280;67464;52.438;-1.904;2023-04-02T03:31:37;100758.79;;;7.14;93.39
44979;BME280;67464;52.438;-1.904;2023-04-02T03:34:03;100758.82;;;7.77;86.99
44979;BME280;67464;52.438;-1.904;2023-04-02T03:36:29;100761.19;;;7.84;83.93
44979;BME280;67464;52.438;-1.904;2023-04-02T03:38:53;100769.28;;;7.58;84.97
44979;BME280;67464;52.438;-1.904;2023-04-02T03:41:18;100768.49;;;6.55;99.48
44979;BME280;67464;52.438;-1.904;2023-04-02T03:43:44;100769.28;;;6.47;99.17
44979;BME280;67464;52.438;-1.904;2023-04-02T03:46:15;100784.94;;;6.35;100.00
44979;BME280;67464;52.438;-1.904;2023-04-02T03:48:38;100785.34;;;6.17;100.00
44979;BME280;67464;52.438;-1.904;2023-04-02T03:51:02;100786.27;;;6.09;100.00
44979;BME280;67464;52.438;-1.904;2023-04-02T03:53:25;100789.15;;;6.45;100.00
44979;BME280;67464;52.438;-1.904;2023-04-02T03:55:50;100788.39;;;6.61;99.79
44979;BME280;67464;52.438;-1.904;2023-04-02T03:58:20;100789.94;;;7.26;97.20
44979;BME280;67464;52.438;-1.904;2023-04-02T04:00:47;100791.30;;;7.85;88.65
44979;BME280;67464;52.438;-1.904;2023-04-02T04:03:12;100797.82;;;7.59;90.35
44979;BME280;67464;52.438;-1.904;2023-04-02T04:05:34;100802.21;;;6.71;94.41
44979;BME280;67464;52.438;-1.904;2023-04-02T04:08:01;100806.54;;;6.95;95.84
44979;BME280;67464;52.438;-1.904;2023-04-02T04:10:25;100806.12;;;6.89;96.49
44979;BME280;67464;52.438;-1.904;2023-04-02T04:12:53;100804.96;;;7.44;89.52
44979;BME280;67464;52.438;-1.904;2023-04-02T04:15:21;100808.47;;;7.74;88.96
44979;BME280;67464;52.438;-1.904;2023-04-02T04:17:49;100807.41;;;8.37;85.17
44979;BME280;67464;52.438;-1.904;2023-04-02T04:20:15;100809.40;;;8.01;85.07
44979;BME280;67464;52.438;-1.904;2023-04-02T04:22:33;100811.32;;;7.96;84.97
44979;BME280;67464;52.438;-1.904;2023-04-02T04:25:00;100810.16;;;7.25;88.53
44979;BME280;67464;52.438;-1.904;2023-04-02T04:27:28;100813.10;;;7.49;86.34
44979;BME280;67464;52.438;-1.904;2023-04-02T04:29:54;100816.40;;;7.62;86.42
44979;BME280;67464;52.438;-1.904;2023-04-02T04:32:23;100816.44;;;8.55;82.24
44979;BME280;67464;52.438;-1.904;2023-04-02T04:34:44;100819.86;;;7.59;88.14
44979;BME280;67464;52.438;-1.904;2023-04-02T04:37:15;100823.48;;;7.52;89.63
44979;BME280;67464;52.438;-1.904;2023-04-02T04:39:39;100826.47;;;7.77;87.87
44979;BME280;67464;52.438;-1.904;2023-04-02T04:42:00;100824.81;;;7.83;85.53
44979;BME280;67464;52.438;-1.904;2023-04-02T04:44:30;100827.65;;;7.26;92.71
44979;BME280;67464;52.438;-1.904;2023-04-02T04:46:54;100828.98;;;7.55;89.61
44979;BME280;67464;52.438;-1.904;2023-04-02T04:49:19;100832.94;;;7.31;89.88
44979;BME280;67464;52.438;-1.904;2023-04-02T04:51:45;100833.18;;;8.11;86.83
44979;BME280;67464;52.438;-1.904;2023-04-02T04:54:11;100832.28;;;7.26;93.30
44979;BME280;67464;52.438;-1.904;2023-04-02T04:56:33;100843.43;;;7.04;95.03
44979;BME280;67464;52.438;-1.904;2023-04-02T04:59:00;100844.14;;;7.79;92.74
44979;BME280;67464;52.438;-1.904;2023-04-02T05:01:27;100846.02;;;7.37;91.13
44979;BME280;67464;52.438;-1.904;2023-04-02T05:03:53;100852.26;;;7.60;88.45
44979;BME280;67464;52.438;-1.904;2023-04-02T05:06:23;100857.53;;;7.72;89.78
44979;BME280;67464;52.438;-1.904;2023-04-02T05:08:44;100864.85;;;7.24;89.82
44979;BME280;67464;52.438;-1.904;2023-04-02T05:11:10;100868.02;;;7.40;87.16
44979;BME280;67464;52.438;-1.904;2023-04-02T05:13:36;100872.25;;;7.21;93.30
44979;BME280;67464;52.438;-1.904;2023-04-02T05:16:04;100874.87;;;7.35;97.53
44979;BME280;67464;52.438;-1.904;2023-04-02T05:18:27;100878.72;;;7.11;95.25
44979;BME280;67464;52.438;-1.904;2023-04-02T05:20:51;100883.15;;;7.31;96.69
44979;BME280;67464;52.438;-1.904;2023-04-02T05:23:17;100886.86;;;7.27;94.51
44979;BME280;67464;52.438;-1.904;2023-04-02T05:25:49;100892.06;;;7.20;90.96
44979;BME280;67464;52.438;-1.904;2023-04-02T05:28:11;100898.24;;;7.31;95.67
44979;BME280;67464;52.438;-1.904;2023-04-02T05:30:42;100897.92;;;7.86;90.62
44979;BME280;67464;52.438;-1.904;2023-04-02T05:33:01;100904.07;;;7.98;89.16
44979;BME280;67464;52.438;-1.904;2023-04-02T05:35:30;100904.84;;;8.02;90.39
44979;BME280;67464;52.438;-1.904;2023-04-02T05:37:49;100911.39;;;8.11;88.98
44979;BME280;67464;52.438;-1.904;2023-04-02T05:40:21;100919.34;;;6.82;95.23
44979;BME280;67464;52.438;-1.904;2023-04-02T05:42:42;100917.35;;;7.25;97.49
44979;BME280;67464;52.438;-1.904;2023-04-02T05:45:16;100924.47;;;7.05;100.00
44979;BME280;67464;52.438;-1.904;2023-04-02T05:47:32;100928.22;;;6.31;100.00
44979;BME280;67464;52.438;-1.904;2023-04-02T05:50:13;100933.02;;;6.36;100.00
44979;BME280;67464;52.438;-1.904;2023-04-02T05:52:27;100935.10;;;7.25;100.00
44979;BME280;67464;52.438;-1.904;2023-04-02T05:54:52;100940.77;;;7.00;100.00
44979;BME280;67464;52.438;-1.904;2023-04-02T05:57:19;100941.33;;;7.26;100.00
44979;BME280;67464;52.438;-1.904;2023-04-02T05:59:43;100940.06;;;8.21;90.82
44979;BME280;67464;52.438;-1.904;2023-04-02T06:02:15;100941.76;;;8.09;91.93
44979;BME280;67464;52.438;-1.904;2023-04-02T06:04:35;100946.70;;;7.83;94.44
44979;BME280;67464;52.438;-1.904;2023-04-02T06:07:01;100953.52;;;7.79;93.56
44979;BME280;67464;52.438;-1.904;2023-04-02T06:09:32;100962.47;;;7.17;95.32
44979;BME280;67464;52.438;-1.904;2023-04-02T06:11:53;100968.51;;;6.67;100.00
44979;BME280;67464;52.438;-1.904;2023-04-02T06:14:16;100964.40;;;7.12;97.72
44979;BME280;67464;52.438;-1.904;2023-04-02T06:16:42;100962.74;;;7.72;94.48
44979;BME280;67464;52.438;-1.904;2023-04-02T06:19:12;100968.05;;;7.78;96.25
44979;BME280;67464;52.438;-1.904;2023-04-02T06:21:33;100972.15;;;6.61;100.00
44979;BME280;67464;52.438;-1.904;2023-04-02T06:24:01;100971.55;;;6.54;100.00
44979;BME280;67464;52.438;-1.904;2023-04-02T06:26:27;100980.03;;;6.44;100.00
44979;BME280;67464;52.438;-1.904;2023-04-02T06:28:54;100980.84;;;5.25;100.00
44979;BME280;67464;52.438;-1.904;2023-04-02T06:31:22;100983.27;;;5.97;100.00
44979;BME280;67464;52.438;-1.904;2023-04-02T06:33:42;100993.48;;;5.97;100.00
44979;BME280;67464;52.438;-1.904;2023-04-02T06:36:08;100999.16;;;5.77;100.00
44979;BME280;67464;52.438;-1.904;2023-04-02T06:38:34;101002.20;;;5.44;100.00
44979;BME280;67464;52.438;-1.904;2023-04-02T06:41:01;101005.48;;;5.34;100.00
44979;BME280;67464;52.438;-1.904;2023-04-02T06:43:27;101004.48;;;5.18;100.00
44979;BME280;67464;52.438;-1.904;2023-04-02T06:45:51;101014.23;;;5.71;100.00
44979;BME280;67464;52.438;-1.904;2023-04-02T06:48:18;101022.88;;;5.16;100.00
44979;BME280;67464;52.438;-1.904;2023-04-02T06:50:46;101031.24;;;4.74;100.00
44979;BME280;67464;52.438;-1.904;2023-04-02T06:53:15;101043.46;;;5.60;100.00
44979;BME280;67464;52.438;-1.904;2023-04-02T06:55:40;101049.48;;;5.31;100.00
44979;BME280;67464;52.438;-1.904;2023-04-02T06:57:58;101050.62;;;5.18;100.00
44979;BME280;67464;52.438;-1.904;2023-04-02T07:00:27;101051.48;;;5.76;100.00
44979;BME280;67464;52.438;-1.904;2023-04-02T07:02:51;101050.70;;;6.03;100.00
44979;BME280;67464;52.438;-1.904;2023-04-02T07:05:16;101064.52;;;5.44;100.00
44979;BME280;67464;52.438;-1.904;2023-04-02T07:07:42;101068.89;;;5.71;100.00
44979;BME280;67464;52.438;-1.904;2023-04-02T07:10:08;101071.30;;;5.25;100.00
44979;BME280;67464;52.438;-1.904;2023-04-02T07:12:32;101076.84;;;5.59;100.00
44979;BME280;67464;52.438;-1.904;2023-04-02T07:14:58;101079.32;;;5.99;100.00
44979;BME280;67464;52.438;-1.904;2023-04-02T07:17:23;101084.57;;;5.21;100.00
44979;BME280;67464;52.438;-1.904;2023-04-02T07:19:49;101094.07;;;5.16;100.00
44979;BME280;67464;52.438;-1.904;2023-04-02T07:22:15;101095.93;;;4.78;100.00
44979;BME280;67464;52.438;-1.904;2023-04-02T07:24:40;101092.93;;;5.87;100.00
44979;BME280;67464;52.438;-1.904;2023-04-02T07:27:06;101096.47;;;5.64;100.00
44979;BME280;67464;52.438;-1.904;2023-04-02T07:29:31;101088.47;;;6.27;100.00
44979;BME280;67464;52.438;-1.904;2023-04-02T07:31:57;101092.79;;;5.63;100.00
44979;BME280;67464;52.438;-1.904;2023-04-02T07:34:22;101087.20;;;5.53;100.00
44979;BME280;67464;52.438;-1.904;2023-04-02T07:36:48;101090.84;;;5.86;100.00
44979;BME280;67464;52.438;-1.904;2023-04-02T07:39:13;101097.36;;;5.70;100.00
44979;BME280;67464;52.438;-1.904;2023-04-02T07:41:49;101103.05;;;5.58;100.00
44979;BME280;67464;52.438;-1.904;2023-04-02T07:44:05;101111.56;;;5.86;100.00
44979;BME280;67464;52.438;-1.904;2023-04-02T07:46:30;101115.27;;;6.05;100.00
44979;BME280;67464;52.438;-1.904;2023-04-02T07:48:56;101120.84;;;6.21;97.64
44979;BME280;67464;52.438;-1.904;2023-04-02T07:51:23;101119.69;;;6.79;93.50
44979;BME280;67464;52.438;-1.904;2023-04-02T07:53:48;101121.98;;;5.99;91.46
44979;BME280;67464;52.438;-1.904;2023-04-02T07:56:14;101126.21;;;6.24;90.49
44979;BME280;67464;52.438;-1.904;2023-04-02T07:58:39;101129.64;;;5.64;99.44
44979;BME280;67464;52.438;-1.904;2023-04-02T08:01:04;101134.59;;;5.70;99.60
44979;BME280;67464;52.438;-1.904;2023-04-02T08:03:29;101132.52;;;5.95;96.24
44979;BME280;67464;52.438;-1.904;2023-04-02T08:05:57;101130.34;;;6.09;94.59
44979;BME280;67464;52.438;-1.904;2023-04-02T08:08:21;101132.77;;;6.67;92.47
44979;BME280;67464;52.438;-1.904;2023-04-02T08:10:47;101137.03;;;7.11;86.08
44979;BME280;67464;52.438;-1.904;2023-04-02T08:13:12;101146.23;;;5.71;91.52
44979;BME280;67464;52.438;-1.904;2023-04-02T08:15:38;101151.11;;;6.38;97.74
44979;BME280;67464;52.438;-1.904;2023-04-02T08:18:03;101158.18;;;5.75;92.52
44979;BME280;67464;52.438;-1.904;2023-04-02T08:20:29;101162.73;;;5.99;88.78
44979;BME280;67464;52.438;-1.904;2023-04-02T08:22:54;101166.99;;;5.92;91.33
44979;BME280;67464;52.438;-1.904;2023-04-02T08:25:20;101172.08;;;5.35;93.97
44979;BME280;67464;52.438;-1.904;2023-04-02T08:27:46;101176.84;;;6.04;91.68
44979;BME280;67464;52.438;-1.904;2023-04-02T08:30:12;101176.99;;;5.38;89.17
44979;BME280;67464;52.438;-1.904;2023-04-02T08:32:36;101176.71;;;6.08;83.05
44979;BME280;67464;52.438;-1.904;2023-04-02T08:35:02;101170.11;;;6.63;81.14
44979;BME280;67464;52.438;-1.904;2023-04-02T08:37:27;101172.73;;;6.13;87.71
44979;BME280;67464;52.438;-1.904;2023-04-02T08:39:53;101172.39;;;6.04;83.80
44979;BME280;67464;52.438;-1.904;2023-04-02T08:42:22;101182.63;;;5.94;82.13
44979;BME280;67464;52.438;-1.904;2023-04-02T08:44:51;101181.04;;;6.92;84.72
44979;BME280;67464;52.438;-1.904;2023-04-02T08:47:09;101189.90;;;6.87;79.68
44979;BME280;67464;52.438;-1.904;2023-04-02T08:49:37;101192.28;;;6.73;75.66
44979;BME280;67464;52.438;-1.904;2023-04-02T08:52:00;101192.78;;;7.89;75.90
44979;BME280;67464;52.438;-1.904;2023-04-02T08:54:28;101196.70;;;7.39;78.57
44979;BME280;67464;52.438;-1.904;2023-04-02T08:56:54;101201.37;;;7.25;73.69
44979;BME280;67464;52.438;-1.904;2023-04-02T08:59:22;101198.89;;;7.53;69.90
44979;BME280;67464;52.438;-1.904;2023-04-02T09:01:47;101199.98;;;7.22;75.80
44979;BME280;67464;52.438;-1.904;2023-04-02T09:04:14;101207.19;;;7.74;72.60
44979;BME280;67464;52.438;-1.904;2023-04-02T09:06:34;101209.52;;;7.63;72.02
44979;BME280;67464;52.438;-1.904;2023-04-02T09:08:59;101211.68;;;8.36;66.66
44979;BME280;67464;52.438;-1.904;2023-04-02T09:11:28;101216.84;;;8.05;66.54
44979;BME280;67464;52.438;-1.904;2023-04-02T09:13:54;101218.84;;;7.77;67.12
44979;BME280;67464;52.438;-1.904;2023-04-02T09:16:17;101233.98;;;8.26;70.89
44979;BME280;67464;52.438;-1.904;2023-04-02T09:18:43;101241.23;;;8.78;64.09
44979;BME280;67464;52.438;-1.904;2023-04-02T09:21:18;101243.42;;;8.09;70.00
44979;BME280;67464;52.438;-1.904;2023-04-02T09:23:32;101249.32;;;8.24;67.30
44979;BME280;67464;52.438;-1.904;2023-04-02T09:25:58;101254.09;;;8.51;62.18
44979;BME280;67464;52.438;-1.904;2023-04-02T09:28:24;101249.68;;;7.72;69.65
44979;BME280;67464;52.438;-1.904;2023-04-02T09:30:58;101256.74;;;8.08;69.51
44979;BME280;67464;52.438;-1.904;2023-04-02T09:33:14;101250.70;;;7.46;71.39
44979;BME280;67464;52.438;-1.904;2023-04-02T09:38:17;101258.07;;;7.37;69.46
44979;BME280;67464;52.438;-1.904;2023-04-02T09:40:32;101263.97;;;7.29;70.26
44979;BME280;67464;52.438;-1.904;2023-04-02T09:43:04;101270.12;;;8.10;67.93
44979;BME280;67464;52.438;-1.904;2023-04-02T09:45:23;101273.18;;;8.22;65.27
44979;BME280;67464;52.438;-1.904;2023-04-02T09:47:49;101275.12;;;8.81;62.60
44979;BME280;67464;52.438;-1.904;2023-04-02T09:50:25;101276.27;;;8.50;63.35
44979;BME280;67464;52.438;-1.904;2023-04-02T09:52:38;101268.72;;;7.32;66.11
44979;BME280;67464;52.438;-1.904;2023-04-02T09:57:29;101273.42;;;7.45;67.76
44979;BME280;67464;52.438;-1.904;2023-04-02T10:00:09;101274.48;;;7.49;71.75
44979;BME280;67464;52.438;-1.904;2023-04-02T10:02:23;101278.74;;;7.35;65.49
44979;BME280;67464;52.438;-1.904;2023-04-02T10:04:47;101287.31;;;6.96;64.81
44979;BME280;67464;52.438;-1.904;2023-04-02T10:09:37;101286.46;;;7.47;71.76
44979;BME280;67464;52.438;-1.904;2023-04-02T10:12:05;101292.36;;;8.60;69.24
44979;BME280;67464;52.438;-1.904;2023-04-02T10:14:30;101292.47;;;9.09;61.88
44979;BME280;67464;52.438;-1.904;2023-04-02T10:16:56;101295.85;;;9.24;58.40
44979;BME280;67464;52.438;-1.904;2023-04-02T10:19:27;101299.18;;;9.21;60.60
44979;BME280;67464;52.438;-1.904;2023-04-02T10:21:46;101301.60;;;8.53;60.56
44979;BME280;67464;52.438;-1.904;2023-04-02T10:24:11;101305.11;;;8.27;61.65
44979;BME280;67464;52.438;-1.904;2023-04-02T10:26:47;101316.09;;;8.28;63.81
44979;BME280;67464;52.438;-1.904;2023-04-02T10:29:11;101317.54;;;8.42;64.67
44979;BME280;67464;52.438;-1.904;2023-04-02T10:31:32;101322.70;;;8.98;58.40
44979;BME280;67464;52.438;-1.904;2023-04-02T10:33:58;101319.05;;;8.68;62.27
44979;BME280;67464;52.438;-1.904;2023-04-02T10:36:26;101320.23;;;8.70;58.79
44979;BME280;67464;52.438;-1.904;2023-04-02T10:38:49;101322.09;;;9.12;56.10
44979;BME280;67464;52.438;-1.904;2023-04-02T10:41:24;101331.15;;;8.72;60.12
44979;BME280;67464;52.438;-1.904;2023-04-02T10:43:45;101336.99;;;8.47;60.63
44979;BME280;67464;52.438;-1.904;2023-04-02T10:46:03;101342.76;;;8.78;61.41
44979;BME280;67464;52.438;-1.904;2023-04-02T10:48:31;101346.04;;;9.91;58.46
44979;BME280;67464;52.438;-1.904;2023-04-02T10:50:56;101350.52;;;9.32;61.44
44979;BME280;67464;52.438;-1.904;2023-04-02T10:53:17;101354.44;;;9.00;55.59
44979;BME280;67464;52.438;-1.904;2023-04-02T10:55:44;101355.00;;;9.89;59.97
44979;BME280;67464;52.438;-1.904;2023-04-02T10:58:16;101351.49;;;10.10;56.23
44979;BME280;67464;52.438;-1.904;2023-04-02T11:00:35;101352.92;;;10.67;55.39
44979;BME280;67464;52.438;-1.904;2023-04-02T11:03:02;101357.37;;;10.89;53.06
44979;BME280;67464;52.438;-1.904;2023-04-02T11:05:29;101361.77;;;10.90;55.39
44979;BME280;67464;52.438;-1.904;2023-04-02T11:07:54;101364.30;;;9.53;56.26
44979;BME280;67464;52.438;-1.904;2023-04-02T11:10:15;101364.39;;;9.34;56.22
44979;BME280;67464;52.438;-1.904;2023-04-02T11:12:44;101367.41;;;8.38;58.87
44979;BME280;67464;52.438;-1.904;2023-04-02T11:15:12;101374.26;;;9.18;61.28
44979;BME280;67464;52.438;-1.904;2023-04-02T11:17:30;101373.72;;;9.49;56.51
44979;BME280;67464;52.438;-1.904;2023-04-02T11:22:23;101381.25;;;9.34;52.60
44979;BME280;67464;52.438;-1.904;2023-04-02T11:24:48;101377.22;;;10.30;58.25
44979;BME280;67464;52.438;-1.904;2023-04-02T11:27:16;101374.22;;;10.34;53.62
44979;BME280;67464;52.438;-1.904;2023-04-02T11:29:39;101377.80;;;9.87;54.62
44979;BME280;67464;52.438;-1.904;2023-04-02T11:37:02;101375.01;;;10.25;52.83
44979;BME280;67464;52.438;-1.904;2023-04-02T11:46:41;101386.69;;;11.28;51.80
44979;BME280;67464;52.438;-1.904;2023-04-02T11:53:53;101398.07;;;11.03;50.81
44979;BME280;67464;52.438;-1.904;2023-04-02T11:56:20;101397.64;;;11.35;46.66
44979;BME280;67464;52.438;-1.904;2023-04-02T11:58:53;101398.06;;;11.77;50.11
44979;BME280;67464;52.438;-1.904;2023-04-02T12:01:32;101404.38;;;10.73;52.10
44979;BME280;67464;52.438;-1.904;2023-04-02T12:03:46;101400.53;;;11.26;47.59
44979;BME280;67464;52.438;-1.904;2023-04-02T12:06:04;101406.87;;;10.71;51.63
44979;BME280;67464;52.438;-1.904;2023-04-02T12:08:34;101406.82;;;11.38;49.07
44979;BME280;67464;52.438;-1.904;2023-04-02T12:10:54;101401.61;;;12.21;46.43
44979;BME280;67464;52.438;-1.904;2023-04-02T12:13:18;101402.49;;;12.21;46.65
44979;BME280;67464;52.438;-1.904;2023-04-02T12:15:45;101402.27;;;13.01;49.40
44979;BME280;67464;52.438;-1.904;2023-04-02T12:18:14;101405.80;;;13.00;43.34
44979;BME280;67464;52.438;-1.904;2023-04-02T12:20:33;101408.96;;;14.02;42.17
44979;BME280;67464;52.438;-1.904;2023-04-02T12:22:58;101408.57;;;13.49;41.30
44979;BME280;67464;52.438;-1.904;2023-04-02T12:25:26;101407.89;;;13.69;42.40
44979;BME280;67464;52.438;-1.904;2023-04-02T12:28:03;101402.10;;;12.02;39.91
44979;BME280;67464;52.438;-1.904;2023-04-02T12:30:17;101407.72;;;12.25;45.62
44979;BME280;67464;52.438;-1.904;2023-04-02T12:32:41;101408.38;;;13.02;43.77
44979;BME280;67464;52.438;-1.904;2023-04-02T12:37:32;101414.06;;;14.14;41.91
44979;BME280;67464;52.438;-1.904;2023-04-02T12:39:58;101418.16;;;13.35;41.12
44979;BME280;67464;52.438;-1.904;2023-04-02T12:42:26;101420.47;;;12.62;42.06
44979;BME280;67464;52.438;-1.904;2023-04-02T12:44:48;101421.15;;;13.06;38.33
44979;BME280;67464;52.438;-1.904;2023-04-02T12:47:13;101409.64;;;14.43;38.87
44979;BME280;67464;52.438;-1.904;2023-04-02T12:49:40;101414.92;;;15.54;38.49
44979;BME280;67464;52.438;-1.904;2023-04-02T12:52:06;101413.41;;;16.93;37.80
44979;BME280;67464;52.438;-1.904;2023-04-02T12:54:33;101414.75;;;17.58;34.86
44979;BME280;67464;52.438;-1.904;2023-04-02T12:59:28;101411.54;;;17.43;31.15
44979;BME280;67464;52.438;-1.904;2023-04-02T13:01:54;101409.32;;;17.05;33.11
44979;BME280;67464;52.438;-1.904;2023-04-02T13:04:11;101407.67;;;17.76;34.59
44979;BME280;67464;52.438;-1.904;2023-04-02T13:06:37;101403.81;;;17.14;36.44
44979;BME280;67464;52.438;-1.904;2023-04-02T13:09:04;101401.54;;;16.39;34.14
44979;BME280;67464;52.438;-1.904;2023-04-02T13:11:34;101409.46;;;16.47;37.16